Time;durP1;ratioP1;P1;durP2;ratioP2;P2;SDS_P1;SDS_P2;PMS_P1;PMS_P2;Temp;Humidity;BMP_temperature;BMP_pressure;BME280_temperature;BME280_humidity;BME280_pressure;Samples;Min_cycle;Max_cycle;Signal;HPM_P1;HPM_P2
2022/07/19 00:01:16;;;;;;;;;;;;;;;25.05;39.63;101394.56;5064496;28;1009;-39
2022/07/19 00:03:41;;;;;;;;;;;;;;;24.49;42.04;101392.75;5070244;28;1016;-40
2022/07/19 00:06:07;;;;;;;;;;;;;;;25.28;39.13;101391.41;5071202;28;1497;-42
2022/07/19 00:08:32;;;;;;;;;;;;;;;24.72;37.06;101403.13;5071425;28;1914;-40
2022/07/19 00:10:57;;;;;;;;;;;;;;;24.30;41.63;101396.41;5070226;28;1060;-41
2022/07/19 00:13:23;;;;;;;;;;;;;;;24.46;40.34;101399.28;5070131;28;1131;-41
2022/07/19 00:15:48;;;;;;;;;;;;;;;24.26;41.56;101398.53;5056086;28;1223;-41
2022/07/19 00:18:14;;;;;;;;;;;;;;;24.61;41.96;101396.09;5055594;28;1163;-41
2022/07/19 00:20:39;;;;;;;;;;;;;;;24.83;39.97;101393.97;5055496;28;1231;-41
2022/07/19 00:23:05;;;;;;;;;;;;;;;24.30;42.04;101386.50;5055454;28;1171;-42
2022/07/19 00:25:30;;;;;;;;;;;;;;;25.17;39.04;101389.81;5063466;28;1112;-42
2022/07/19 00:27:55;;;;;;;;;;;;;;;24.83;40.53;101386.78;5075760;28;1135;-41
2022/07/19 00:30:20;;;;;;;;;;;;;;;24.77;41.57;101384.69;5056611;28;1889;-39
2022/07/19 00:32:46;;;;;;;;;;;;;;;24.51;39.42;101395.28;5060093;28;1155;-43
2022/07/19 00:35:11;;;;;;;;;;;;;;;24.22;40.81;101391.78;5068058;28;1100;-42
2022/07/19 00:37:36;;;;;;;;;;;;;;;24.22;42.97;101391.78;5074568;28;1159;-42
2022/07/19 00:40:02;;;;;;;;;;;;;;;24.70;39.89;101392.53;5059897;28;1171;-41
2022/07/19 00:42:27;;;;;;;;;;;;;;;24.35;41.77;101394.13;5059559;28;1231;-41
2022/07/19 00:44:53;;;;;;;;;;;;;;;25.06;38.90;101380.09;5060154;28;1434;-42
2022/07/19 00:47:18;;;;;;;;;;;;;;;24.78;40.05;101388.22;5059228;28;1159;-41
2022/07/19 00:49:43;;;;;;;;;;;;;;;24.54;41.78;101386.94;5058913;28;1901;-42
2022/07/19 00:52:08;;;;;;;;;;;;;;;25.12;39.22;101378.66;5059358;28;1124;-42
2022/07/19 00:54:34;;;;;;;;;;;;;;;24.64;41.24;101384.22;5059630;28;1171;-43
2022/07/19 00:56:59;;;;;;;;;;;;;;;24.39;42.39;101382.03;5059415;28;1132;-43
2022/07/19 00:59:24;;;;;;;;;;;;;;;24.30;40.45;101383.81;5041329;28;1129;-42
2022/07/19 01:01:50;;;;;;;;;;;;;;;24.00;41.66;101380.34;5041756;28;1140;-43
2022/07/19 01:04:15;;;;;;;;;;;;;;;24.81;39.94;101382.53;5041271;28;1277;-41
2022/07/19 01:06:41;;;;;;;;;;;;;;;24.57;40.34;101387.47;5059493;28;1164;-42
2022/07/19 01:09:06;;;;;;;;;;;;;;;24.13;42.43;101376.47;5059164;28;1973;-41
2022/07/19 01:11:31;;;;;;;;;;;;;;;24.91;39.59;101377.97;5067830;28;1101;-43
2022/07/19 01:13:56;;;;;;;;;;;;;;;24.58;40.56;101370.34;5068777;28;1213;-42
2022/07/19 01:16:22;;;;;;;;;;;;;;;24.93;40.73;101377.81;5059076;28;1144;-41
2022/07/19 01:18:47;;;;;;;;;;;;;;;24.91;39.55;101371.72;5058851;28;1230;-42
2022/07/19 01:21:19;;;;;;;;;;;;;;;24.36;41.75;101378.84;5059132;28;1198;-41
2022/07/19 01:23:44;;;;;;;;;;;;;;;25.19;38.46;101369.81;5059181;28;999;-41
2022/07/19 01:26:10;;;;;;;;;;;;;;;24.86;39.64;101374.84;5058850;28;1222;-43
2022/07/19 01:28:35;;;;;;;;;;;;;;;24.73;40.86;101369.84;5058895;28;1902;-41
2022/07/19 01:31:00;;;;;;;;;;;;;;;24.55;38.39;101376.03;5058834;28;1214;-43
2022/07/19 01:33:25;;;;;;;;;;;;;;;24.26;40.26;101373.47;5058548;28;1151;-42
2022/07/19 01:35:51;;;;;;;;;;;;;;;23.99;42.98;101373.25;5077203;28;1167;-42
2022/07/19 01:38:16;;;;;;;;;;;;;;;24.73;39.46;101377.06;5067107;28;1608;-43
2022/07/19 01:40:41;;;;;;;;;;;;;;;24.49;40.44;101373.09;5047000;28;1183;-43
2022/07/19 01:43:07;;;;;;;;;;;;;;;25.10;38.58;101370.75;5058031;28;1143;-42
2022/07/19 01:45:32;;;;;;;;;;;;;;;24.79;39.41;101369.22;5066517;28;1164;-41
2022/07/19 01:47:57;;;;;;;;;;;;;;;24.37;41.58;101373.31;5058292;28;898;-42
2022/07/19 01:50:22;;;;;;;;;;;;;;;24.40;40.87;101372.16;5058323;28;1898;-42
2022/07/19 01:52:48;;;;;;;;;;;;;;;24.37;40.05;101375.13;5058155;28;1124;-43
2022/07/19 01:55:13;;;;;;;;;;;;;;;23.91;42.41;101374.00;5058367;28;1164;-42
2022/07/19 01:57:38;;;;;;;;;;;;;;;24.76;39.53;101371.34;5058474;28;1187;-42
2022/07/19 02:00:05;;;;;;;;;;;;;;;24.53;40.41;101366.41;5058264;28;892;-41
2022/07/19 02:02:30;;;;;;;;;;;;;;;24.65;41.11;101364.38;5057828;28;1143;-42
2022/07/19 02:04:55;;;;;;;;;;;;;;;25.02;39.36;101365.28;5058509;28;1203;-42
2022/07/19 02:07:21;;;;;;;;;;;;;;;24.49;41.06;101363.16;5057987;28;1128;-41
2022/07/19 02:09:46;;;;;;;;;;;;;;;25.26;38.58;101363.78;5057580;28;1965;-44
2022/07/19 02:12:11;;;;;;;;;;;;;;;24.61;37.24;101361.13;5068395;28;865;-41
2022/07/19 02:14:37;;;;;;;;;;;;;;;24.16;41.04;101366.31;5062124;28;1186;-43
2022/07/19 02:17:02;;;;;;;;;;;;;;;24.60;39.76;101364.81;5040151;28;1191;-41
2022/07/19 02:19:27;;;;;;;;;;;;;;;24.51;40.19;101371.09;5057711;28;1215;-43
2022/07/19 02:21:52;;;;;;;;;;;;;;;24.23;41.97;101366.56;5057981;28;1175;-42
2022/07/19 02:24:18;;;;;;;;;;;;;;;24.97;39.01;101362.19;5057665;28;1160;-43
2022/07/19 02:26:43;;;;;;;;;;;;;;;24.55;40.36;101377.88;5057655;28;1116;-42
2022/07/19 02:29:09;;;;;;;;;;;;;;;25.08;39.63;101359.28;5057695;28;1898;-43
2022/07/19 02:31:34;;;;;;;;;;;;;;;24.86;39.27;101368.63;5057392;28;1211;-42
2022/07/19 02:33:59;;;;;;;;;;;;;;;24.42;41.27;101364.78;5057514;28;1172;-43
2022/07/19 02:36:25;;;;;;;;;;;;;;;24.32;41.37;101372.91;5068529;28;927;-42
2022/07/19 02:38:50;;;;;;;;;;;;;;;24.31;40.13;101366.66;5076415;28;1151;-42
2022/07/19 02:41:16;;;;;;;;;;;;;;;23.91;42.08;101368.63;5057435;28;1120;-40
2022/07/19 02:43:42;;;;;;;;;;;;;;;24.83;39.13;101370.63;5057807;28;1156;-42
2022/07/19 02:46:07;;;;;;;;;;;;;;;24.64;39.80;101368.06;5057401;28;1187;-42
2022/07/19 02:48:32;;;;;;;;;;;;;;;24.46;41.03;101380.47;5068085;28;1906;-42
2022/07/19 02:50:58;;;;;;;;;;;;;;;24.97;38.94;101381.91;5073862;28;1179;-42
2022/07/19 02:53:23;;;;;;;;;;;;;;;24.49;40.57;101381.16;5065591;28;1077;-43
2022/07/19 02:55:48;;;;;;;;;;;;;;;25.02;38.07;101376.03;5038740;28;1255;-43
2022/07/19 02:58:13;;;;;;;;;;;;;;;24.55;39.04;101378.72;5057313;28;1176;-43
2022/07/19 03:00:39;;;;;;;;;;;;;;;24.35;41.04;101377.97;5057040;28;980;-43
2022/07/19 03:05:48;;;;;;;;;;;;;;;24.60;39.63;101391.72;5057068;28;974;-43
2022/07/19 03:08:13;;;;;;;;;;;;;;;24.85;40.01;101385.75;5061914;28;1246;-42
2022/07/19 03:10:38;;;;;;;;;;;;;;;24.46;38.29;101387.69;5065965;28;1914;-45
2022/07/19 03:13:04;;;;;;;;;;;;;;;24.24;39.85;101392.44;5070246;28;966;-44
2022/07/19 03:15:29;;;;;;;;;;;;;;;23.88;42.53;101390.41;5069968;28;1599;-43
2022/07/19 03:17:54;;;;;;;;;;;;;;;24.09;38.88;101390.22;5067942;28;1044;-44
2022/07/19 03:20:20;;;;;;;;;;;;;;;23.86;39.36;101381.66;5067054;28;1135;-44
2022/07/19 03:22:45;;;;;;;;;;;;;;;24.02;39.02;101389.13;5070125;28;1159;-44
2022/07/19 03:25:10;;;;;;;;;;;;;;;23.80;39.44;101387.63;5064409;28;870;-44
2022/07/19 03:27:35;;;;;;;;;;;;;;;23.64;41.49;101386.34;5072118;28;2467;-43
2022/07/19 03:30:01;;;;;;;;;;;;;;;24.40;38.19;101391.81;5063972;28;1890;-44
2022/07/19 03:32:26;;;;;;;;;;;;;;;24.06;38.99;101389.66;5069325;28;953;-44
2022/07/19 03:34:51;;;;;;;;;;;;;;;23.92;40.48;101382.91;5064538;28;1186;-45
2022/07/19 03:37:17;;;;;;;;;;;;;;;23.86;39.73;101384.34;5070145;28;842;-45
2022/07/19 03:39:42;;;;;;;;;;;;;;;23.87;40.16;101386.06;5067591;28;1079;-44
2022/07/19 03:42:07;;;;;;;;;;;;;;;23.94;39.58;101389.00;5072169;28;984;-44
2022/07/19 03:44:32;;;;;;;;;;;;;;;23.92;39.45;101385.59;5072259;28;1020;-44
2022/07/19 03:46:58;;;;;;;;;;;;;;;23.97;40.88;101386.03;5074240;28;1024;-44
2022/07/19 03:49:23;;;;;;;;;;;;;;;24.13;39.13;101387.22;5068322;28;1890;-44
2022/07/19 03:51:48;;;;;;;;;;;;;;;24.00;39.63;101387.56;5062566;28;1151;-43
2022/07/19 03:54:14;;;;;;;;;;;;;;;23.85;41.28;101391.56;5064286;28;1525;-41
2022/07/19 03:56:39;;;;;;;;;;;;;;;24.13;39.56;101389.91;5074338;28;1968;-42
2022/07/19 03:59:05;;;;;;;;;;;;;;;24.33;38.76;101386.19;5067367;28;974;-40
2022/07/19 04:01:30;;;;;;;;;;;;;;;24.56;39.91;101396.56;5066585;28;960;-41
2022/07/19 04:03:55;;;;;;;;;;;;;;;24.37;39.39;101391.28;5072193;28;989;-42
2022/07/19 04:06:20;;;;;;;;;;;;;;;24.03;41.10;101395.31;5070078;28;1095;-41
2022/07/19 04:08:46;;;;;;;;;;;;;;;23.99;39.87;101393.94;5063710;28;1898;-43
2022/07/19 04:11:11;;;;;;;;;;;;;;;24.14;39.17;101388.94;5072159;28;1182;-40
2022/07/19 04:13:36;;;;;;;;;;;;;;;24.26;39.26;101400.34;5070322;28;823;-40
2022/07/19 04:16:02;;;;;;;;;;;;;;;24.62;38.82;101399.63;5068028;28;957;-40
2022/07/19 04:18:27;;;;;;;;;;;;;;;24.74;38.73;101402.97;5075059;28;946;-40
2022/07/19 04:20:53;;;;;;;;;;;;;;;24.88;38.46;101397.06;5060697;28;1199;-41
2022/07/19 04:23:18;;;;;;;;;;;;;;;25.06;38.16;101399.81;5068465;28;1123;-40
2022/07/19 04:25:43;;;;;;;;;;;;;;;25.15;38.03;101398.06;5057485;28;1250;-41
2022/07/19 04:28:08;;;;;;;;;;;;;;;25.17;38.18;101396.03;5070747;28;2245;-41
2022/07/19 04:30:34;;;;;;;;;;;;;;;25.18;38.38;101395.03;5068563;28;1898;-42
2022/07/19 04:32:59;;;;;;;;;;;;;;;25.60;37.73;101399.91;5069210;28;981;-41
2022/07/19 04:35:24;;;;;;;;;;;;;;;25.70;37.49;101395.31;5068098;28;1001;-41
2022/07/19 04:37:50;;;;;;;;;;;;;;;25.86;37.30;101393.75;5071414;28;945;-40
2022/07/19 04:40:15;;;;;;;;;;;;;;;25.93;37.09;101400.19;5070923;28;996;-40
2022/07/19 04:42:40;;;;;;;;;;;;;;;25.99;36.64;101399.53;5066025;28;1096;-40
2022/07/19 04:45:06;;;;;;;;;;;;;;;26.07;36.79;101393.34;5056629;28;884;-40
2022/07/19 04:47:31;;;;;;;;;;;;;;;26.14;36.43;101407.88;5059356;28;989;-40
2022/07/19 04:49:56;;;;;;;;;;;;;;;26.19;36.60;101398.47;5068463;28;1955;-39
2022/07/19 04:52:22;;;;;;;;;;;;;;;26.28;36.16;101406.44;5065485;28;1076;-40
2022/07/19 04:54:47;;;;;;;;;;;;;;;26.34;36.03;101404.97;5073448;28;1152;-40
2022/07/19 04:57:13;;;;;;;;;;;;;;;26.35;36.09;101408.50;5064322;28;1937;-40
2022/07/19 04:59:38;;;;;;;;;;;;;;;26.32;36.30;101406.97;5075008;28;941;-39
2022/07/19 05:02:04;;;;;;;;;;;;;;;26.28;36.73;101402.88;5067092;28;868;-41
2022/07/19 05:04:29;;;;;;;;;;;;;;;26.25;36.78;101405.91;5066820;28;965;-41
2022/07/19 05:06:56;;;;;;;;;;;;;;;26.35;36.54;101405.81;5073734;28;1048;-41
2022/07/19 05:09:25;;;;;;;;;;;;;;;26.33;36.52;101405.97;5067555;28;1981;-40
2022/07/19 05:11:51;;;;;;;;;;;;;;;26.35;36.45;101401.28;5065154;28;1171;-40
2022/07/19 05:14:16;;;;;;;;;;;;;;;26.40;35.94;101408.88;5070810;28;1047;-40
2022/07/19 05:16:41;;;;;;;;;;;;;;;26.45;36.43;101401.13;5064069;28;1128;-41
2022/07/19 05:19:07;;;;;;;;;;;;;;;26.41;36.23;101402.47;5067044;28;1057;-41
2022/07/19 05:21:32;;;;;;;;;;;;;;;26.46;36.16;101408.22;5069043;28;1017;-40
2022/07/19 05:23:57;;;;;;;;;;;;;;;26.47;36.60;101406.38;5074035;28;1155;-41
2022/07/19 05:26:22;;;;;;;;;;;;;;;26.52;36.36;101402.19;5070954;28;833;-40
2022/07/19 05:28:48;;;;;;;;;;;;;;;26.60;36.24;101404.06;5065814;28;1953;-40
2022/07/19 05:31:13;;;;;;;;;;;;;;;26.68;36.48;101410.47;5071925;28;1123;-41
2022/07/19 05:33:38;;;;;;;;;;;;;;;26.57;36.20;101406.25;5070647;28;1012;-41
2022/07/19 05:36:04;;;;;;;;;;;;;;;26.62;36.44;101407.44;5065314;28;981;-42
2022/07/19 05:38:34;;;;;;;;;;;;;;;26.67;36.08;101400.69;5070128;28;902;-41
2022/07/19 05:40:59;;;;;;;;;;;;;;;26.72;35.88;101392.97;5073813;28;988;-42
2022/07/19 05:43:24;;;;;;;;;;;;;;;26.81;35.84;101400.06;5068587;28;961;-42
2022/07/19 05:45:50;;;;;;;;;;;;;;;26.82;35.67;101399.06;5066667;28;1033;-41
2022/07/19 05:48:15;;;;;;;;;;;;;;;26.79;35.34;101394.00;5070750;28;981;-41
2022/07/19 05:50:40;;;;;;;;;;;;;;;26.86;35.24;101399.59;5073395;28;1969;-41
2022/07/19 05:53:05;;;;;;;;;;;;;;;26.88;35.17;101395.69;5065113;28;1222;-41
2022/07/19 05:55:31;;;;;;;;;;;;;;;26.97;35.06;101398.41;5075146;28;950;-41
2022/07/19 05:57:56;;;;;;;;;;;;;;;26.91;35.39;101399.91;5074205;28;1041;-41
2022/07/19 06:00:21;;;;;;;;;;;;;;;27.03;35.30;101405.88;5069765;28;1033;-41
2022/07/19 06:02:47;;;;;;;;;;;;;;;27.10;35.38;101403.34;5071636;28;934;-41
2022/07/19 06:05:12;;;;;;;;;;;;;;;27.03;35.75;101419.38;5069075;28;1008;-41
2022/07/19 06:07:37;;;;;;;;;;;;;;;27.07;35.75;101409.09;5074526;28;1024;-41
2022/07/19 06:10:03;;;;;;;;;;;;;;;27.13;35.73;101398.47;5072363;28;1902;-41
2022/07/19 06:12:28;;;;;;;;;;;;;;;27.45;34.99;101395.94;5076328;28;1063;-40
2022/07/19 06:14:53;;;;;;;;;;;;;;;27.44;35.64;101396.97;5073263;28;962;-42
2022/07/19 06:17:19;;;;;;;;;;;;;;;27.56;35.37;101397.44;5059128;28;1021;-40
2022/07/19 06:19:44;;;;;;;;;;;;;;;27.61;35.19;101395.06;5071027;28;1061;-41
2022/07/19 06:22:09;;;;;;;;;;;;;;;27.70;35.72;101398.66;5074906;28;1166;-41
2022/07/19 06:24:35;;;;;;;;;;;;;;;27.67;35.54;101395.41;5071054;28;1120;-41
2022/07/19 06:27:00;;;;;;;;;;;;;;;27.59;35.49;101389.00;5074616;28;941;-39
2022/07/19 06:29:25;;;;;;;;;;;;;;;27.77;35.78;101385.28;5063750;28;1893;-40
2022/07/19 06:31:50;;;;;;;;;;;;;;;27.77;35.43;101393.41;5069985;28;1045;-40
2022/07/19 06:34:16;;;;;;;;;;;;;;;27.91;35.70;101391.84;5068855;28;1048;-40
2022/07/19 06:36:41;;;;;;;;;;;;;;;27.89;35.98;101388.50;5050286;28;1068;-42
2022/07/19 06:39:06;;;;;;;;;;;;;;;27.91;36.49;101383.72;5072770;28;890;-38
2022/07/19 06:41:32;;;;;;;;;;;;;;;27.83;36.47;101395.41;5059873;28;1068;-39
2022/07/19 06:43:57;;;;;;;;;;;;;;;27.86;36.55;101388.84;5066226;28;965;-39
2022/07/19 06:46:22;;;;;;;;;;;;;;;27.86;35.12;101397.75;5072577;28;1159;-38
2022/07/19 06:48:47;;;;;;;;;;;;;;;27.73;35.08;101386.63;5067739;28;1959;-40
2022/07/19 06:51:13;;;;;;;;;;;;;;;27.75;35.30;101387.31;5076063;28;987;-41
2022/07/19 06:53:38;;;;;;;;;;;;;;;27.67;35.89;101390.84;5069829;28;1001;-45
2022/07/19 06:56:03;;;;;;;;;;;;;;;27.73;35.98;101394.75;5069016;28;969;-41
2022/07/19 06:58:29;;;;;;;;;;;;;;;27.83;36.10;101394.56;5074907;28;1040;-41
2022/07/19 07:00:54;;;;;;;;;;;;;;;27.92;36.13;101395.41;5069751;28;953;-42
2022/07/19 07:03:20;;;;;;;;;;;;;;;28.00;36.25;101395.38;5070177;28;1132;-41
2022/07/19 07:05:45;;;;;;;;;;;;;;;28.06;36.16;101397.38;5069038;28;969;-42
2022/07/19 07:08:10;;;;;;;;;;;;;;;28.13;36.06;101402.94;5072795;28;1207;-40
2022/07/19 07:10:37;;;;;;;;;;;;;;;28.10;35.69;101403.28;5065560;28;1961;-44
2022/07/19 07:13:02;;;;;;;;;;;;;;;28.14;35.81;101403.78;5063475;28;1143;-42
2022/07/19 07:15:27;;;;;;;;;;;;;;;28.19;36.25;101406.81;5069250;28;855;-42
2022/07/19 07:17:53;;;;;;;;;;;;;;;28.22;36.53;101414.56;5069949;28;958;-40
2022/07/19 07:20:18;;;;;;;;;;;;;;;28.20;36.00;101416.59;5062113;28;1039;-40
2022/07/19 07:22:43;;;;;;;;;;;;;;;28.07;36.50;101411.75;5070892;28;976;-41
2022/07/19 07:25:09;;;;;;;;;;;;;;;28.16;36.26;101408.00;5068827;28;1064;-40
2022/07/19 07:27:34;;;;;;;;;;;;;;;28.14;35.93;101414.59;5069094;28;936;-40
2022/07/19 07:29:59;;;;;;;;;;;;;;;28.22;35.82;101417.28;5068895;28;1902;-40
2022/07/19 07:32:26;;;;;;;;;;;;;;;28.10;35.78;101411.41;5067238;28;1060;-41
2022/07/19 07:34:52;;;;;;;;;;;;;;;28.11;36.12;101405.81;5072739;28;1051;-40
2022/07/19 07:37:17;;;;;;;;;;;;;;;28.17;36.19;101414.25;5070454;28;1053;-40
2022/07/19 07:39:42;;;;;;;;;;;;;;;28.07;35.96;101412.59;5069818;28;878;-39
2022/07/19 07:42:07;;;;;;;;;;;;;;;27.91;36.65;101416.16;5066643;28;1016;-38
2022/07/19 07:44:33;;;;;;;;;;;;;;;28.15;35.91;101410.88;5064033;28;1171;-40
2022/07/19 07:46:58;;;;;;;;;;;;;;;28.17;35.89;101409.69;5073951;28;1271;-42
2022/07/19 07:49:23;;;;;;;;;;;;;;;28.14;36.32;101407.34;5067717;28;1902;-41
2022/07/19 07:51:49;;;;;;;;;;;;;;;28.12;36.50;101406.66;5071558;28;953;-43
2022/07/19 07:54:14;;;;;;;;;;;;;;;28.08;36.25;101400.75;5060696;28;962;-43
2022/07/19 07:56:39;;;;;;;;;;;;;;;28.13;36.61;101404.81;5068354;28;929;-42
2022/07/19 07:59:05;;;;;;;;;;;;;;;28.35;36.56;101400.53;5063003;28;1069;-44
2022/07/19 08:01:30;;;;;;;;;;;;;;;28.41;36.01;101397.09;5064940;28;1049;-45
2022/07/19 08:03:56;;;;;;;;;;;;;;;28.45;36.09;101409.28;5068964;28;915;-47
2022/07/19 08:06:21;;;;;;;;;;;;;;;28.18;37.08;101397.84;5062527;28;1224;-48
2022/07/19 08:08:46;;;;;;;;;;;;;;;28.19;37.04;101398.69;5073741;28;1918;-47
2022/07/19 08:11:12;;;;;;;;;;;;;;;28.18;37.33;101391.59;5066283;28;1001;-47
2022/07/19 08:13:37;;;;;;;;;;;;;;;28.38;36.35;101397.47;5065441;28;1033;-37
2022/07/19 08:16:02;;;;;;;;;;;;;;;28.16;36.91;101390.94;5064333;28;1488;-38
2022/07/19 08:18:28;;;;;;;;;;;;;;;28.07;37.62;101392.81;5064548;28;1008;-38
2022/07/19 08:20:53;;;;;;;;;;;;;;;28.20;36.70;101389.56;5060466;28;1100;-38
2022/07/19 08:23:18;;;;;;;;;;;;;;;28.21;37.12;101394.78;5069071;28;1041;-38
2022/07/19 08:25:43;;;;;;;;;;;;;;;28.22;38.74;101393.78;5068737;28;1377;-39
2022/07/19 08:28:09;;;;;;;;;;;;;;;28.50;37.26;101389.78;5062588;28;993;-37
2022/07/19 08:30:34;;;;;;;;;;;;;;;28.54;36.74;101399.25;5062879;28;1961;-36
2022/07/19 08:33:00;;;;;;;;;;;;;;;28.51;37.12;101388.75;5069274;28;1004;-37
2022/07/19 08:35:26;;;;;;;;;;;;;;;28.47;36.95;101404.53;5068788;28;1049;-37
2022/07/19 08:37:51;;;;;;;;;;;;;;;28.47;36.85;101396.41;5064771;28;1139;-36
2022/07/19 08:40:16;;;;;;;;;;;;;;;28.41;37.28;101386.28;5068601;28;1053;-38
2022/07/19 08:42:42;;;;;;;;;;;;;;;28.36;36.61;101386.81;5063125;28;1100;-38
2022/07/19 08:45:08;;;;;;;;;;;;;;;28.44;37.15;101380.53;5067503;28;1141;-37
2022/07/19 08:47:34;;;;;;;;;;;;;;;28.43;36.75;101389.66;5071038;28;1116;-36
2022/07/19 08:49:59;;;;;;;;;;;;;;;28.69;36.31;101387.66;5067867;28;1961;-37
2022/07/19 08:52:25;;;;;;;;;;;;;;;28.71;35.98;101381.03;5070680;28;1033;-36
2022/07/19 08:54:50;;;;;;;;;;;;;;;28.75;36.08;101376.13;5070196;28;1207;-37
2022/07/19 08:59:59;;;;;;;;;;;;;;;28.70;36.37;101386.63;5077908;28;1219;-37
2022/07/19 09:02:25;;;;;;;;;;;;;;;28.57;36.29;101388.06;5049158;28;981;-37
2022/07/19 09:05:05;;;;;;;;;;;;;;;28.64;36.41;101393.63;5071961;28;1200;-37
2022/07/19 09:07:30;;;;;;;;;;;;;;;28.56;36.18;101388.25;5068390;28;1269;-41
2022/07/19 09:10:13;;;;;;;;;;;;;;;28.42;37.01;101384.44;5070690;28;1964;-37
2022/07/19 09:12:56;;;;;;;;;;;;;;;28.50;36.47;101387.09;5067597;28;1403;-38
2022/07/19 09:15:21;;;;;;;;;;;;;;;28.55;36.10;101384.69;5070286;28;885;-37
2022/07/19 09:17:47;;;;;;;;;;;;;;;28.50;36.38;101378.13;5048428;28;1223;-38
2022/07/19 09:20:14;;;;;;;;;;;;;;;28.20;35.90;101367.91;5065550;28;1087;-38
2022/07/19 09:22:39;;;;;;;;;;;;;;;28.14;36.40;101374.88;5060129;28;1199;-39
2022/07/19 09:25:04;;;;;;;;;;;;;;;28.18;36.69;101375.34;5053830;28;1395;-39
2022/07/19 09:27:30;;;;;;;;;;;;;;;28.37;36.28;101379.56;5071334;28;1068;-40
2022/07/19 09:29:55;;;;;;;;;;;;;;;28.54;35.60;101379.47;5072490;28;1894;-39
2022/07/19 09:32:21;;;;;;;;;;;;;;;28.66;36.19;101375.31;5074230;28;1100;-39
2022/07/19 09:34:56;;;;;;;;;;;;;;;28.66;36.21;101380.72;5068436;28;1005;-38
2022/07/19 09:37:21;;;;;;;;;;;;;;;28.52;35.67;101373.38;5067431;28;1072;-39
2022/07/19 09:39:48;;;;;;;;;;;;;;;28.33;35.86;101376.34;5073251;28;907;-38
2022/07/19 09:42:14;;;;;;;;;;;;;;;28.26;35.63;101386.13;5067545;28;993;-41
2022/07/19 09:44:39;;;;;;;;;;;;;;;28.60;34.77;101386.88;5073174;28;1175;-43
2022/07/19 09:47:05;;;;;;;;;;;;;;;28.99;32.22;101390.56;5069162;28;1064;-41
2022/07/19 09:49:30;;;;;;;;;;;;;;;29.09;31.42;101377.59;5070915;28;1902;-42
2022/07/19 09:51:55;;;;;;;;;;;;;;;29.03;30.98;101386.44;5071393;28;939;-41
2022/07/19 09:54:22;;;;;;;;;;;;;;;29.05;30.75;101380.84;5069472;28;977;-39
2022/07/19 09:56:49;;;;;;;;;;;;;;;28.64;31.27;101371.13;5075147;28;1076;-41
2022/07/19 09:59:15;;;;;;;;;;;;;;;29.01;31.30;101374.13;5075115;28;1021;-41
2022/07/19 10:01:40;;;;;;;;;;;;;;;29.20;31.54;101378.19;5067195;28;1225;-38
2022/07/19 10:04:08;;;;;;;;;;;;;;;29.12;31.92;101370.13;5057360;28;938;-41
2022/07/19 10:06:34;;;;;;;;;;;;;;;29.15;31.91;101367.06;5065545;28;1167;-42
2022/07/19 10:08:59;;;;;;;;;;;;;;;29.02;32.02;101364.97;5069024;28;1902;-40
2022/07/19 10:11:25;;;;;;;;;;;;;;;28.95;32.38;101364.81;5072864;28;1238;-41
2022/07/19 10:13:50;;;;;;;;;;;;;;;28.97;32.57;101365.50;5070753;28;1056;-41
2022/07/19 10:16:17;;;;;;;;;;;;;;;28.89;32.99;101365.53;5071855;28;770;-44
2022/07/19 10:18:46;;;;;;;;;;;;;;;28.87;32.79;101360.31;5067991;28;1174;-41
2022/07/19 10:21:11;;;;;;;;;;;;;;;28.93;32.94;101361.44;5047881;28;950;-40
2022/07/19 10:23:37;;;;;;;;;;;;;;;28.96;32.85;101366.53;5070841;28;1032;-41
2022/07/19 10:26:03;;;;;;;;;;;;;;;28.82;33.46;101360.00;5077401;28;1155;-41
2022/07/19 10:28:35;;;;;;;;;;;;;;;28.84;33.45;101368.78;5064883;28;886;-42
2022/07/19 10:31:00;;;;;;;;;;;;;;;28.94;33.68;101361.28;5070654;28;1910;-42
2022/07/19 10:33:33;;;;;;;;;;;;;;;28.96;33.42;101359.22;5052737;28;1009;-42
2022/07/19 10:36:00;;;;;;;;;;;;;;;28.80;33.91;101364.75;5064611;28;922;-42
2022/07/19 10:38:25;;;;;;;;;;;;;;;28.85;33.78;101355.06;5051605;28;1219;-44
2022/07/19 10:40:56;;;;;;;;;;;;;;;28.83;33.80;101358.97;5064023;28;1386;-43
2022/07/19 10:43:21;;;;;;;;;;;;;;;28.81;34.18;101351.03;5069857;28;1025;-43
2022/07/19 10:45:56;;;;;;;;;;;;;;;28.75;34.38;101345.50;5073988;28;1179;-41
2022/07/19 10:48:21;;;;;;;;;;;;;;;28.62;34.85;101341.53;5067307;28;1001;-41
2022/07/19 10:50:50;;;;;;;;;;;;;;;28.76;34.53;101337.19;5047258;28;1971;-42
2022/07/19 10:53:35;;;;;;;;;;;;;;;28.81;34.36;101342.09;5069851;28;896;-41
2022/07/19 10:56:18;;;;;;;;;;;;;;;28.85;34.37;101332.56;5063492;28;1111;-42
2022/07/19 10:58:50;;;;;;;;;;;;;;;28.80;34.62;101327.69;5071060;28;949;-43
2022/07/19 11:01:18;;;;;;;;;;;;;;;28.84;34.77;101336.31;5070308;28;925;-45
2022/07/19 11:03:43;;;;;;;;;;;;;;;28.91;34.34;101336.44;5068035;28;958;-41
2022/07/19 11:06:09;;;;;;;;;;;;;;;28.96;34.65;101332.13;5069544;28;885;-49
2022/07/19 11:08:38;;;;;;;;;;;;;;;28.93;34.54;101323.53;5039328;28;1198;-43
2022/07/19 11:11:04;;;;;;;;;;;;;;;28.90;34.61;101327.44;5070380;28;1913;-43
2022/07/19 11:13:29;;;;;;;;;;;;;;;28.92;34.45;101314.56;5069070;28;1100;-41
2022/07/19 11:15:55;;;;;;;;;;;;;;;28.97;34.24;101319.47;5065843;28;953;-44
2022/07/19 11:18:20;;;;;;;;;;;;;;;28.96;34.41;101313.19;5069743;28;1005;-43
2022/07/19 11:20:46;;;;;;;;;;;;;;;28.96;34.59;101313.19;5061240;28;1187;-42
2022/07/19 11:23:16;;;;;;;;;;;;;;;28.89;35.16;101317.66;5072661;28;961;-42
2022/07/19 11:25:41;;;;;;;;;;;;;;;28.73;36.14;101313.19;5073313;28;966;-42
2022/07/19 11:28:06;;;;;;;;;;;;;;;28.76;35.55;101318.22;5059847;28;970;-43
2022/07/19 11:30:33;;;;;;;;;;;;;;;28.79;35.81;101311.63;5052605;28;1960;-43
2022/07/19 11:32:59;;;;;;;;;;;;;;;28.72;35.65;101311.50;5066419;28;2088;-44
2022/07/19 11:35:25;;;;;;;;;;;;;;;28.81;35.66;101315.00;5066436;28;1032;-42
2022/07/19 11:37:51;;;;;;;;;;;;;;;28.93;35.21;101304.56;5072300;28;1152;-43
2022/07/19 11:40:17;;;;;;;;;;;;;;;28.89;35.54;101316.81;5063818;28;981;-46
2022/07/19 11:42:45;;;;;;;;;;;;;;;28.84;35.59;101299.22;5069593;28;1121;-43
2022/07/19 11:45:21;;;;;;;;;;;;;;;28.84;35.67;101301.09;5065597;28;953;-44
2022/07/19 11:47:53;;;;;;;;;;;;;;;28.64;35.86;101304.31;5068769;28;1041;-44
2022/07/19 11:50:20;;;;;;;;;;;;;;;28.71;36.12;101301.72;5072522;28;1947;-42
2022/07/19 11:52:46;;;;;;;;;;;;;;;28.89;35.76;101297.84;5062332;28;1157;-43
2022/07/19 11:55:12;;;;;;;;;;;;;;;28.88;35.77;101294.28;5072661;28;1008;-43
2022/07/19 11:57:37;;;;;;;;;;;;;;;28.95;35.94;101300.66;5069445;28;1065;-42
2022/07/19 12:00:03;;;;;;;;;;;;;;;28.87;35.84;101295.31;5065442;28;1139;-43
2022/07/19 12:02:29;;;;;;;;;;;;;;;28.85;36.24;101291.94;5066886;28;1012;-45
2022/07/19 12:04:54;;;;;;;;;;;;;;;28.73;36.49;101297.78;5066070;28;1238;-43
2022/07/19 12:07:19;;;;;;;;;;;;;;;28.62;36.45;101303.63;5067724;28;1060;-46
2022/07/19 12:09:45;;;;;;;;;;;;;;;28.64;36.59;101304.31;5069368;28;1979;-45
2022/07/19 12:12:13;;;;;;;;;;;;;;;28.69;36.28;101299.19;5063632;28;962;-44
2022/07/19 12:14:40;;;;;;;;;;;;;;;28.66;36.58;101296.81;5068478;28;976;-45
2022/07/19 12:17:15;;;;;;;;;;;;;;;28.72;36.26;101304.25;5065290;28;1112;-44
2022/07/19 12:19:41;;;;;;;;;;;;;;;28.72;37.21;101301.53;5067351;28;1060;-43
2022/07/19 12:22:06;;;;;;;;;;;;;;;29.11;36.25;101300.75;5070834;28;1191;-44
2022/07/19 12:24:32;;;;;;;;;;;;;;;29.30;35.36;101299.38;5068962;28;985;-45
2022/07/19 12:26:58;;;;;;;;;;;;;;;29.24;35.78;101294.69;5072121;28;969;-41
2022/07/19 12:29:26;;;;;;;;;;;;;;;29.13;35.46;101294.09;5069524;28;1964;-42
2022/07/19 12:31:54;;;;;;;;;;;;;;;29.21;34.99;101295.91;5072846;28;1044;-41
2022/07/19 12:34:19;;;;;;;;;;;;;;;29.25;35.46;101288.22;5077402;28;1214;-51
2022/07/19 12:36:45;;;;;;;;;;;;;;;29.20;35.65;101286.94;5069544;28;1009;-43
2022/07/19 12:39:21;;;;;;;;;;;;;;;29.17;35.78;101281.88;5068301;28;989;-43
2022/07/19 12:42:00;;;;;;;;;;;;;;;29.07;35.75;101281.31;5072592;28;950;-43
2022/07/19 12:44:25;;;;;;;;;;;;;;;29.16;35.99;101282.06;5066856;28;1214;-42
2022/07/19 12:46:50;;;;;;;;;;;;;;;29.16;34.32;101288.31;5071030;28;1008;-43
2022/07/19 12:49:16;;;;;;;;;;;;;;;29.22;33.25;101286.75;5074196;28;1890;-39